createdAt,value
2022-09-17T00:01:16.808Z,12.90
2022-09-17T00:03:45.370Z,13.00
2022-09-17T00:06:13.860Z,12.80
2022-09-17T00:08:42.602Z,13.00
2022-09-17T00:11:14.759Z,13.00
2022-09-17T00:13:43.632Z,13.00
2022-09-17T00:16:12.299Z,12.90
2022-09-17T00:18:41.969Z,12.70
2022-09-17T00:21:17.760Z,12.60
2022-09-17T00:23:45.590Z,12.60
2022-09-17T00:26:14.987Z,12.60
2022-09-17T00:28:45.314Z,12.70
2022-09-17T00:31:13.297Z,12.90
2022-09-17T00:33:41.063Z,12.70
2022-09-17T00:36:09.240Z,12.80
2022-09-17T00:38:36.924Z,12.60
2022-09-17T00:41:05.811Z,12.80
2022-09-17T00:43:43.693Z,12.80
2022-09-17T00:46:24.038Z,12.60
2022-09-17T00:48:52.846Z,12.60
2022-09-17T00:51:25.658Z,12.60
2022-09-17T00:53:53.556Z,12.80
2022-09-17T00:56:25.339Z,12.70
2022-09-17T00:58:56.366Z,12.70
2022-09-17T01:01:24.629Z,12.80
2022-09-17T01:03:52.516Z,12.70
2022-09-17T01:06:31.127Z,12.50
2022-09-17T01:09:11.069Z,12.70
2022-09-17T01:11:53.951Z,12.70
2022-09-17T01:14:39.068Z,12.80
2022-09-17T01:17:15.940Z,12.70
2022-09-17T01:20:22.433Z,12.60
2022-09-17T01:23:04.303Z,12.50
2022-09-17T01:25:47.292Z,12.30
2022-09-17T01:28:32.700Z,12.60
2022-09-17T01:31:23.861Z,12.40
2022-09-17T01:33:58.947Z,12.60
2022-09-17T01:36:39.765Z,12.40
2022-09-17T01:39:17.212Z,12.30
2022-09-17T01:41:51.933Z,12.20
2022-09-17T01:44:27.072Z,12.30
2022-09-17T01:47:04.016Z,12.60
2022-09-17T01:49:32.915Z,12.10
2022-09-17T01:52:02.901Z,12.40
2022-09-17T01:54:37.138Z,12.60
2022-09-17T01:57:14.811Z,12.40
2022-09-17T01:59:47.660Z,12.60
2022-09-17T02:02:22.360Z,12.30
2022-09-17T02:04:56.404Z,12.30
2022-09-17T02:07:25.875Z,12.60
2022-09-17T02:10:00.639Z,12.20
2022-09-17T02:12:32.782Z,12.30
2022-09-17T02:15:03.223Z,12.50
2022-09-17T02:17:38.147Z,12.20
2022-09-17T02:20:07.546Z,12.50
2022-09-17T02:22:42.044Z,12.50
2022-09-17T02:25:15.749Z,12.50
2022-09-17T02:27:51.896Z,12.50
2022-09-17T02:30:20.004Z,12.40
2022-09-17T02:32:49.655Z,12.20
2022-09-17T02:35:17.708Z,12.00
2022-09-17T02:37:46.178Z,12.00
2022-09-17T02:40:17.255Z,12.30
2022-09-17T02:43:00.482Z,11.90
2022-09-17T02:45:39.871Z,12.10
2022-09-17T02:48:25.333Z,12.20
2022-09-17T02:51:12.657Z,12.10
2022-09-17T02:53:46.655Z,11.90
2022-09-17T02:56:21.326Z,12.10
2022-09-17T02:58:53.821Z,11.80
2022-09-17T03:01:30.277Z,12.10
2022-09-17T03:04:02.932Z,11.80
2022-09-17T03:06:30.732Z,12.00
2022-09-17T03:08:58.405Z,11.90
2022-09-17T03:11:26.337Z,11.80
2022-09-17T03:13:54.148Z,11.90
2022-09-17T03:16:21.868Z,11.80
2022-09-17T03:18:49.559Z,11.80
2022-09-17T03:21:18.589Z,11.90
2022-09-17T03:23:47.535Z,11.50
2022-09-17T03:26:15.215Z,11.70
2022-09-17T03:28:42.889Z,12.00
2022-09-17T03:31:10.634Z,11.80
2022-09-17T03:33:38.391Z,11.60
2022-09-17T03:36:06.356Z,12.00
2022-09-17T03:38:35.404Z,11.90
2022-09-17T03:41:04.904Z,11.90
2022-09-17T03:43:32.664Z,11.90
2022-09-17T03:46:00.615Z,12.00
2022-09-17T03:48:29.460Z,12.10
2022-09-17T03:50:57.137Z,12.10
2022-09-17T03:53:24.931Z,12.10
2022-09-17T03:55:53.947Z,11.80
2022-09-17T03:58:21.689Z,11.60
2022-09-17T04:00:53.013Z,12.00
2022-09-17T04:03:21.305Z,12.00
2022-09-17T04:05:50.087Z,12.30
2022-09-17T04:08:17.972Z,12.00
2022-09-17T04:10:46.053Z,12.10
2022-09-17T04:13:16.640Z,12.20
2022-09-17T04:15:45.376Z,11.90
2022-09-17T04:18:14.004Z,11.90
2022-09-17T04:20:41.992Z,12.00
2022-09-17T04:23:12.462Z,12.00
2022-09-17T04:25:40.174Z,12.10
2022-09-17T04:28:07.960Z,12.20
2022-09-17T04:30:37.278Z,12.30
2022-09-17T04:33:05.553Z,12.00
2022-09-17T04:35:33.229Z,12.00
2022-09-17T04:38:01.066Z,12.30
2022-09-17T04:40:28.889Z,12.10
2022-09-17T04:42:59.288Z,12.10
2022-09-17T04:45:27.382Z,12.20
2022-09-17T04:47:57.420Z,12.30
2022-09-17T04:50:25.171Z,12.20
2022-09-17T04:52:52.881Z,12.30
2022-09-17T04:55:20.744Z,12.00
2022-09-17T04:57:49.856Z,12.40
2022-09-17T05:00:18.566Z,12.20
2022-09-17T05:02:48.451Z,12.20
2022-09-17T05:05:18.500Z,11.90
2022-09-17T05:07:46.564Z,12.10
2022-09-17T05:10:16.426Z,12.20
2022-09-17T05:12:49.194Z,11.90
2022-09-17T05:15:17.319Z,11.90
2022-09-17T05:17:45.036Z,12.10
2022-09-17T05:20:13.336Z,12.20
2022-09-17T05:22:46.820Z,12.00
2022-09-17T05:25:16.215Z,12.20
2022-09-17T05:27:44.533Z,12.10
2022-09-17T05:30:13.220Z,11.90
2022-09-17T05:32:41.573Z,11.90
2022-09-17T05:35:10.619Z,11.90
2022-09-17T05:37:38.434Z,11.80
2022-09-17T05:40:10.219Z,11.50
2022-09-17T05:42:38.730Z,11.70
2022-09-17T05:45:07.326Z,11.80
2022-09-17T05:47:36.113Z,11.50
2022-09-17T05:50:03.944Z,11.70
2022-09-17T05:52:31.679Z,11.80
2022-09-17T05:54:59.428Z,11.60
2022-09-17T05:57:30.711Z,11.50
2022-09-17T05:59:58.469Z,11.60
2022-09-17T06:02:26.184Z,11.50
2022-09-17T06:04:53.849Z,11.60
2022-09-17T06:07:21.559Z,11.50
2022-09-17T06:09:49.265Z,11.60
2022-09-17T06:12:16.979Z,11.40
2022-09-17T06:14:46.151Z,11.50
2022-09-17T06:17:13.853Z,11.60
2022-09-17T06:19:41.654Z,11.80
2022-09-17T06:22:09.332Z,11.60
2022-09-17T06:24:37.163Z,11.80
2022-09-17T06:27:05.061Z,11.80
2022-09-17T06:29:32.745Z,11.90
2022-09-17T06:32:02.632Z,11.80
2022-09-17T06:34:30.419Z,11.70
2022-09-17T06:36:58.117Z,12.00
2022-09-17T06:39:25.809Z,12.20
2022-09-17T06:41:53.627Z,12.00
2022-09-17T06:44:21.376Z,12.10
2022-09-17T06:46:51.100Z,12.00
2022-09-17T06:49:20.421Z,12.10
2022-09-17T06:51:48.152Z,12.10
2022-09-17T06:54:15.812Z,12.10
2022-09-17T06:56:43.711Z,12.30
2022-09-17T06:59:11.383Z,12.10
2022-09-17T07:01:39.128Z,12.20
2022-09-17T07:04:06.907Z,12.30
2022-09-17T07:06:36.012Z,12.00
2022-09-17T07:09:06.842Z,12.30
2022-09-17T07:11:36.832Z,12.00
2022-09-17T07:14:05.222Z,12.30
2022-09-17T07:16:35.829Z,12.50
2022-09-17T07:19:04.583Z,12.70
2022-09-17T07:21:32.665Z,12.80
2022-09-17T07:24:04.453Z,13.10
2022-09-17T07:26:32.245Z,13.50
2022-09-17T07:29:01.143Z,13.30
2022-09-17T07:31:28.904Z,13.40
2022-09-17T07:34:03.693Z,13.30
2022-09-17T07:36:31.426Z,13.80
2022-09-17T07:38:59.217Z,14.30
2022-09-17T07:41:28.424Z,14.60
2022-09-17T07:43:56.229Z,15.00
2022-09-17T07:46:24.158Z,16.10
2022-09-17T07:48:52.171Z,17.20
2022-09-17T07:51:21.715Z,17.10
2022-09-17T07:53:52.375Z,17.20
2022-09-17T07:56:20.381Z,17.40
2022-09-17T07:58:49.563Z,17.60
2022-09-17T08:01:18.517Z,17.10
2022-09-17T08:03:51.057Z,17.20
2022-09-17T08:06:20.732Z,17.20
2022-09-17T08:08:48.725Z,17.00
2022-09-17T08:11:38.212Z,17.00
2022-09-17T08:14:08.181Z,16.80
2022-09-17T08:16:36.009Z,16.90
2022-09-17T08:19:03.764Z,17.00
2022-09-17T08:21:31.604Z,16.80
2022-09-17T08:23:59.709Z,17.10
2022-09-17T08:26:27.848Z,16.80
2022-09-17T08:28:56.698Z,16.80
2022-09-17T08:31:28.232Z,16.70
2022-09-17T08:33:55.983Z,16.50
2022-09-17T08:36:25.993Z,16.10
2022-09-17T08:38:54.806Z,15.60
2022-09-17T08:41:29.223Z,15.80
2022-09-17T08:44:10.203Z,15.70
2022-09-17T08:46:44.118Z,15.90
2022-09-17T08:49:21.755Z,15.90
2022-09-17T08:52:02.239Z,16.10
2022-09-17T08:54:37.448Z,16.20
2022-09-17T08:57:17.200Z,16.00
2022-09-17T08:59:50.600Z,16.30
2022-09-17T09:02:35.025Z,16.50
2022-09-17T09:05:09.611Z,16.50
2022-09-17T09:07:42.141Z,16.10
2022-09-17T09:10:16.963Z,16.30
2022-09-17T09:12:46.528Z,15.80
2022-09-17T09:15:34.945Z,15.90
2022-09-17T09:18:13.945Z,15.70
2022-09-17T09:20:48.385Z,16.40
2022-09-17T09:23:20.763Z,18.30
2022-09-17T09:26:07.024Z,19.20
2022-09-17T09:28:45.056Z,20.40
2022-09-17T09:31:28.629Z,20.10
2022-09-17T09:33:59.377Z,19.50
2022-09-17T09:36:31.018Z,18.80
2022-09-17T09:39:02.769Z,18.50
2022-09-17T09:41:36.761Z,18.40
2022-09-17T09:44:06.825Z,18.10
2022-09-17T09:46:48.952Z,17.70
2022-09-17T09:49:27.894Z,17.80
2022-09-17T09:52:12.545Z,19.50
2022-09-17T09:54:53.815Z,21.10
2022-09-17T09:57:35.904Z,22.50
2022-09-17T10:00:28.931Z,23.50
2022-09-17T10:03:01.556Z,23.50
2022-09-17T10:05:31.706Z,22.80
2022-09-17T10:08:00.212Z,22.50
2022-09-17T10:10:27.947Z,22.10
2022-09-17T10:13:07.581Z,21.20
2022-09-17T10:15:35.383Z,20.60
2022-09-17T10:18:19.155Z,20.30
2022-09-17T10:20:59.950Z,20.70
2022-09-17T10:23:29.836Z,20.40
2022-09-17T10:25:57.703Z,20.40
2022-09-17T10:28:40.376Z,19.70
2022-09-17T10:31:10.626Z,19.10
2022-09-17T10:33:41.896Z,18.90
2022-09-17T10:36:14.658Z,18.40
2022-09-17T10:38:44.283Z,18.60
2022-09-17T10:41:22.681Z,19.10
2022-09-17T10:43:50.652Z,20.50
2022-09-17T10:46:26.658Z,21.70
2022-09-17T10:49:06.245Z,22.70
2022-09-17T10:51:35.723Z,22.80
2022-09-17T10:54:20.285Z,22.80
2022-09-17T10:56:52.241Z,22.00
2022-09-17T10:59:51.092Z,21.90
2022-09-17T11:02:47.194Z,21.80
2022-09-17T11:05:36.975Z,21.50
2022-09-17T11:08:13.727Z,20.90
2022-09-17T11:10:49.599Z,20.00
2022-09-17T11:13:25.645Z,19.60
2022-09-17T11:16:09.335Z,19.60
2022-09-17T11:18:41.081Z,19.40
2022-09-17T11:21:29.452Z,19.40
2022-09-17T11:24:45.666Z,19.10
2022-09-17T11:27:26.027Z,18.70
2022-09-17T11:30:06.068Z,18.90
2022-09-17T11:32:57.708Z,18.50
2022-09-17T11:35:28.811Z,18.40
2022-09-17T11:38:02.867Z,18.70
2022-09-17T11:40:40.079Z,18.50
2022-09-17T11:43:19.583Z,18.80
2022-09-17T11:46:01.561Z,19.00
2022-09-17T11:48:36.838Z,19.20
2022-09-17T11:51:13.618Z,18.90
2022-09-17T11:53:47.591Z,19.00
2022-09-17T11:56:22.664Z,19.20
2022-09-17T11:58:54.980Z,18.90
2022-09-17T12:01:29.285Z,18.70
2022-09-17T12:04:00.959Z,18.70
2022-09-17T12:06:37.984Z,18.40
2022-09-17T12:09:13.270Z,18.10
2022-09-17T12:11:48.202Z,18.50
2022-09-17T12:14:21.842Z,18.30
2022-09-17T12:16:52.987Z,18.20
2022-09-17T12:19:26.586Z,18.40
2022-09-17T12:21:57.135Z,18.70
2022-09-17T12:24:26.955Z,18.40
2022-09-17T12:27:23.114Z,18.30
2022-09-17T12:30:19.300Z,18.10
2022-09-17T12:33:08.496Z,18.30
2022-09-17T12:36:04.579Z,18.30
2022-09-17T12:39:06.441Z,19.00
2022-09-17T12:41:44.159Z,19.30
2022-09-17T12:44:35.393Z,19.50
2022-09-17T12:47:17.674Z,19.20
2022-09-17T12:50:09.033Z,19.70
2022-09-17T12:52:53.899Z,19.60
2022-09-17T12:55:30.920Z,19.80
2022-09-17T12:58:06.762Z,20.00
2022-09-17T13:00:38.784Z,19.90
2022-09-17T13:03:13.757Z,20.00
2022-09-17T13:06:03.279Z,20.00
2022-09-17T13:08:59.872Z,20.00
2022-09-17T13:11:52.727Z,19.90
2022-09-17T13:14:28.615Z,19.50
2022-09-17T13:17:01.360Z,19.30
2022-09-17T13:19:36.587Z,18.80
2022-09-17T13:22:10.111Z,19.10
2022-09-17T13:24:38.207Z,19.00
2022-09-17T13:27:07.408Z,18.80
2022-09-17T13:30:02.669Z,18.50
2022-09-17T13:32:49.367Z,19.00
2022-09-17T13:35:51.478Z,18.90
2022-09-17T13:38:23.792Z,19.00
2022-09-17T13:40:52.912Z,18.50
2022-09-17T13:43:26.719Z,18.50
2022-09-17T13:46:17.356Z,18.90
2022-09-17T13:48:50.886Z,19.00
2022-09-17T13:51:47.492Z,19.20
2022-09-17T13:54:17.320Z,19.10
2022-09-17T13:56:47.659Z,18.70
2022-09-17T13:59:19.026Z,18.80
2022-09-17T14:02:30.663Z,18.70
2022-09-17T14:05:39.151Z,18.70
2022-09-17T14:08:29.080Z,18.60
2022-09-17T14:10:59.379Z,18.80
2022-09-17T14:13:44.657Z,18.80
2022-09-17T14:16:35.719Z,19.00
2022-09-17T14:19:06.841Z,18.60
2022-09-17T14:21:36.347Z,18.60
2022-09-17T14:24:14.761Z,18.30
2022-09-17T14:27:07.221Z,18.40
2022-09-17T14:29:50.396Z,18.90
2022-09-17T14:32:20.934Z,18.70
2022-09-17T14:34:49.180Z,18.90
2022-09-17T14:37:21.871Z,18.80
2022-09-17T14:39:50.900Z,18.70
2022-09-17T14:42:21.927Z,18.80
2022-09-17T14:44:57.937Z,19.10
2022-09-17T14:47:26.819Z,18.90
2022-09-17T14:49:55.222Z,18.60
2022-09-17T14:52:30.328Z,18.70
2022-09-17T14:55:11.607Z,18.40
2022-09-17T14:57:39.957Z,18.50
2022-09-17T15:00:16.840Z,18.50
2022-09-17T15:02:45.462Z,18.40
2022-09-17T15:05:22.833Z,18.30
2022-09-17T15:07:52.093Z,18.40
2022-09-17T15:10:21.833Z,18.40
2022-09-17T15:12:51.536Z,18.30
2022-09-17T15:15:22.015Z,18.20
2022-09-17T15:17:51.305Z,18.80
2022-09-17T15:20:22.567Z,18.20
2022-09-17T15:22:57.491Z,18.20
2022-09-17T15:25:30.499Z,18.20
2022-09-17T15:28:04.710Z,18.20
2022-09-17T15:30:33.136Z,17.80
2022-09-17T15:33:01.272Z,17.70
2022-09-17T15:35:31.049Z,17.60
2022-09-17T15:38:22.334Z,17.70
2022-09-17T15:40:51.544Z,17.60
2022-09-17T15:43:26.289Z,17.90
2022-09-17T15:45:54.492Z,17.40
2022-09-17T15:48:34.848Z,17.40
2022-09-17T15:51:03.919Z,17.20
2022-09-17T15:53:34.075Z,17.00
2022-09-17T15:56:08.401Z,17.20
2022-09-17T15:58:52.036Z,17.10
2022-09-17T16:01:55.592Z,17.10
2022-09-17T16:04:32.635Z,16.90
2022-09-17T16:07:03.558Z,17.10
2022-09-17T16:09:45.793Z,17.00
2022-09-17T16:12:18.273Z,17.10
2022-09-17T16:14:48.379Z,17.00
2022-09-17T16:17:28.911Z,17.30
2022-09-17T16:19:57.018Z,17.10
2022-09-17T16:22:26.207Z,17.30
2022-09-17T16:24:55.229Z,17.20
2022-09-17T16:27:27.215Z,16.90
2022-09-17T16:30:02.598Z,17.00
2022-09-17T16:32:30.322Z,16.80
2022-09-17T16:34:58.289Z,16.80
2022-09-17T16:37:26.010Z,16.90
2022-09-17T16:39:55.071Z,16.70
2022-09-17T16:42:22.843Z,16.80
2022-09-17T16:44:50.543Z,16.50
2022-09-17T16:47:18.405Z,16.30
2022-09-17T16:49:46.138Z,15.60
2022-09-17T16:52:13.834Z,15.80
2022-09-17T16:54:41.507Z,15.30
2022-09-17T16:57:10.541Z,15.80
2022-09-17T16:59:38.344Z,15.50
2022-09-17T17:02:07.016Z,15.20
2022-09-17T17:04:34.729Z,15.10
2022-09-17T17:07:02.421Z,15.10
2022-09-17T17:09:30.117Z,14.70
2022-09-17T17:11:57.822Z,14.90
2022-09-17T17:14:26.888Z,14.90
2022-09-17T17:16:54.655Z,14.80
2022-09-17T17:19:23.207Z,14.60
2022-09-17T17:21:51.443Z,14.80
2022-09-17T17:24:19.227Z,14.60
2022-09-17T17:26:48.243Z,14.80
2022-09-17T17:29:16.742Z,14.70
2022-09-17T17:31:45.926Z,14.60
2022-09-17T17:34:13.695Z,14.30
2022-09-17T17:36:41.828Z,14.50
2022-09-17T17:39:10.288Z,14.70
2022-09-17T17:41:38.534Z,14.90
2022-09-17T17:44:07.230Z,14.50
2022-09-17T17:46:35.041Z,14.80
2022-09-17T17:49:04.452Z,14.80
2022-09-17T17:51:32.139Z,14.90
2022-09-17T17:53:59.893Z,14.80
2022-09-17T17:56:27.717Z,14.80
2022-09-17T17:58:57.589Z,14.50
2022-09-17T18:01:27.413Z,14.50
2022-09-17T18:03:58.003Z,14.00
2022-09-17T18:06:27.995Z,14.20
2022-09-17T18:08:56.069Z,13.80
2022-09-17T18:11:25.117Z,13.90
2022-09-17T18:13:53.685Z,14.00
2022-09-17T18:16:22.713Z,14.00
2022-09-17T18:18:51.238Z,13.90
2022-09-17T18:21:20.553Z,13.80
2022-09-17T18:23:50.557Z,13.80
2022-09-17T18:26:19.995Z,13.70
2022-09-17T18:28:47.978Z,13.80
2022-09-17T18:31:22.130Z,13.50
2022-09-17T18:33:50.498Z,13.60
2022-09-17T18:36:18.384Z,13.60
2022-09-17T18:38:46.096Z,13.60
2022-09-17T18:41:15.137Z,13.30
2022-09-17T18:43:43.352Z,13.50
2022-09-17T18:46:11.137Z,13.70
2022-09-17T18:48:38.905Z,13.60
2022-09-17T18:51:08.769Z,13.90
2022-09-17T18:53:38.281Z,13.60
2022-09-17T18:56:11.078Z,13.60
2022-09-17T18:58:40.159Z,13.70
2022-09-17T19:01:08.707Z,13.70
2022-09-17T19:03:36.466Z,13.60
2022-09-17T19:06:05.852Z,13.60
2022-09-17T19:08:33.584Z,13.80
2022-09-17T19:11:01.277Z,13.70
2022-09-17T19:13:34.653Z,13.60
2022-09-17T19:16:04.811Z,13.50
2022-09-17T19:18:33.985Z,13.60
2022-09-17T19:21:02.899Z,13.40
2022-09-17T19:23:31.830Z,13.40
2022-09-17T19:26:06.553Z,13.80
2022-09-17T19:28:34.449Z,13.50
2022-09-17T19:31:05.811Z,13.20
2022-09-17T19:33:33.942Z,13.70
2022-09-17T19:36:02.508Z,13.40
2022-09-17T19:38:31.733Z,13.60
2022-09-17T19:41:00.728Z,13.30
2022-09-17T19:43:28.543Z,13.20
2022-09-17T19:46:02.188Z,13.40
2022-09-17T19:48:31.969Z,13.30
2022-09-17T19:51:00.207Z,13.30
2022-09-17T19:53:28.075Z,13.30
2022-09-17T19:55:55.870Z,13.50
2022-09-17T19:58:23.821Z,13.20
2022-09-17T20:00:55.839Z,13.30
2022-09-17T20:03:23.563Z,13.40
2022-09-17T20:05:59.425Z,13.00
2022-09-17T20:08:27.373Z,13.20
2022-09-17T20:10:55.397Z,12.90
2022-09-17T20:13:25.191Z,13.00
2022-09-17T20:15:53.065Z,12.80
2022-09-17T20:18:23.516Z,12.90
2022-09-17T20:20:52.953Z,12.80
2022-09-17T20:23:20.821Z,12.90
2022-09-17T20:25:52.829Z,13.10
2022-09-17T20:28:20.652Z,13.10
2022-09-17T20:30:48.530Z,12.80
2022-09-17T20:33:18.929Z,12.80
2022-09-17T20:35:48.856Z,12.90
2022-09-17T20:39:09.398Z,12.70
2022-09-17T20:41:09.131Z,12.90
2022-09-17T20:43:38.766Z,13.10
2022-09-17T20:46:07.528Z,13.00
2022-09-17T20:48:36.182Z,13.20
2022-09-17T20:51:05.643Z,12.90
2022-09-17T20:53:37.173Z,13.30
2022-09-17T20:56:07.073Z,12.60
2022-09-17T20:58:36.816Z,12.90
2022-09-17T21:01:09.328Z,12.90
2022-09-17T21:03:37.983Z,13.30
2022-09-17T21:06:06.508Z,13.00
2022-09-17T21:08:35.755Z,13.10
2022-09-17T21:11:05.023Z,13.00
2022-09-17T21:13:32.939Z,12.90
2022-09-17T21:16:02.303Z,13.00
2022-09-17T21:18:30.205Z,13.10
2022-09-17T21:20:58.155Z,12.70
2022-09-17T21:23:26.853Z,12.90
2022-09-17T21:26:03.171Z,13.20
2022-09-17T21:28:31.433Z,13.10
2022-09-17T21:31:04.621Z,12.90
2022-09-17T21:33:32.495Z,13.20
2022-09-17T21:36:04.956Z,13.30
2022-09-17T21:38:33.126Z,13.10
2022-09-17T21:41:03.926Z,13.10
2022-09-17T21:43:32.948Z,12.90
2022-09-17T21:46:02.599Z,12.90
2022-09-17T21:48:31.395Z,13.10
2022-09-17T21:51:03.910Z,13.00
2022-09-17T21:53:32.519Z,12.80
2022-09-17T21:56:06.564Z,12.70
2022-09-17T21:58:34.655Z,12.70
2022-09-17T22:01:07.166Z,12.80
2022-09-17T22:03:35.357Z,12.70
2022-09-17T22:06:04.609Z,12.90
2022-09-17T22:08:33.418Z,12.70
2022-09-17T22:11:05.141Z,13.00
2022-09-17T22:13:36.855Z,12.80
2022-09-17T22:16:06.853Z,12.80
2022-09-17T22:18:36.307Z,12.60
2022-09-17T22:21:13.721Z,12.90
2022-09-17T22:23:41.535Z,12.80
2022-09-17T22:26:09.793Z,12.80
2022-09-17T22:28:38.911Z,12.70
2022-09-17T22:31:08.864Z,12.80
2022-09-17T22:33:38.077Z,12.70
2022-09-17T22:36:07.588Z,12.80
2022-09-17T22:38:35.838Z,12.90
2022-09-17T22:41:05.570Z,13.00
2022-09-17T22:43:33.808Z,12.80
2022-09-17T22:46:11.293Z,12.80
2022-09-17T22:48:39.117Z,12.60
2022-09-17T22:51:07.103Z,12.50
2022-09-17T22:53:34.853Z,12.60
2022-09-17T22:56:03.350Z,12.60
2022-09-17T22:58:31.441Z,12.40
2022-09-17T23:00:59.572Z,12.40
2022-09-17T23:03:28.765Z,12.60
2022-09-17T23:06:00.202Z,12.30
2022-09-17T23:08:28.763Z,12.70
2022-09-17T23:10:56.958Z,12.70
2022-09-17T23:13:24.705Z,12.50
2022-09-17T23:15:52.530Z,12.70
2022-09-17T23:18:21.388Z,12.60
2022-09-17T23:20:59.312Z,12.70
2022-09-17T23:23:27.419Z,12.60
2022-09-17T23:25:55.916Z,12.40
2022-09-17T23:28:23.832Z,12.80
2022-09-17T23:30:51.562Z,12.70
2022-09-17T23:33:19.263Z,12.90
2022-09-17T23:35:46.936Z,12.80
2022-09-17T23:38:15.987Z,12.50
2022-09-17T23:40:43.703Z,12.70
2022-09-17T23:43:11.385Z,12.70
2022-09-17T23:45:39.062Z,12.90
2022-09-17T23:48:06.772Z,12.80
2022-09-17T23:50:34.437Z,12.60
2022-09-17T23:53:02.161Z,12.60
2022-09-17T23:55:31.227Z,12.50
2022-09-17T23:57:58.924Z,12.60
